Time;durP1;ratioP1;P1;durP2;ratioP2;P2;SDS_P1;SDS_P2;PMS_P1;PMS_P2;Temp;Humidity;BMP_temperature;BMP_pressure;BME280_temperature;BME280_humidity;BME280_pressure;Samples;Min_cycle;Max_cycle;Signal;HPM_P1;HPM_P2
2024/03/18 00:01:02;;;;;;;12.30;5.43;;;;;;;;;;5015854;28;20394;-60
2024/03/18 00:03:27;;;;;;;12.37;4.60;;;;;;;;;;5014624;28;20109;-59
2024/03/18 00:05:52;;;;;;;12.30;4.85;;;;;;;;;;5013041;28;20061;-60
2024/03/18 00:08:17;;;;;;;14.10;4.77;;;;;;;;;;5012531;28;20436;-60
2024/03/18 00:10:42;;;;;;;12.25;4.28;;;;;;;;;;5013752;28;20501;-59
2024/03/18 00:13:08;;;;;;;10.67;4.73;;;;;;;;;;5013872;28;20029;-59
2024/03/18 00:15:33;;;;;;;15.17;5.17;;;;;;;;;;5012489;28;20037;-60
2024/03/18 00:17:58;;;;;;;16.33;5.50;;;;;;;;;;5013636;28;20044;-59
2024/03/18 00:20:24;;;;;;;12.80;5.30;;;;;;;;;;5014282;28;20551;-59
2024/03/18 00:22:50;;;;;;;13.05;5.60;;;;;;;;;;5013302;28;20018;-59
2024/03/18 00:25:15;;;;;;;10.83;4.90;;;;;;;;;;5012945;28;20524;-60
2024/03/18 00:27:40;;;;;;;13.03;4.83;;;;;;;;;;5013777;28;20036;-59
2024/03/18 00:30:07;;;;;;;11.57;4.70;;;;;;;;;;5013730;28;20025;-60
2024/03/18 00:32:33;;;;;;;12.70;5.47;;;;;;;;;;5027592;28;20042;-58
2024/03/18 00:34:58;;;;;;;12.30;5.35;;;;;;;;;;5000790;28;20037;-60
2024/03/18 00:37:23;;;;;;;15.33;6.70;;;;;;;;;;5013919;28;20026;-59
2024/03/18 00:39:49;;;;;;;17.33;7.33;;;;;;;;;;5012785;28;20375;-60
2024/03/18 00:42:15;;;;;;;14.05;7.07;;;;;;;;;;5012700;28;20503;-59
2024/03/18 00:44:41;;;;;;;19.38;8.27;;;;;;;;;;5013142;28;20066;-59
2024/03/18 00:47:07;;;;;;;19.63;8.93;;;;;;;;;;5013832;28;20022;-60
2024/03/18 00:49:32;;;;;;;22.42;9.30;;;;;;;;;;5012530;28;20022;-60
2024/03/18 00:51:58;;;;;;;23.83;10.07;;;;;;;;;;5013534;28;20541;-60
2024/03/18 00:54:23;;;;;;;26.30;9.17;;;;;;;;;;5013192;28;20022;-59
2024/03/18 00:56:49;;;;;;;15.90;7.70;;;;;;;;;;5011660;28;20022;-60
2024/03/18 00:59:15;;;;;;;14.77;7.37;;;;;;;;;;5013480;28;20455;-59
2024/03/18 01:01:41;;;;;;;15.27;7.53;;;;;;;;;;5015219;28;20021;-59
2024/03/18 01:04:06;;;;;;;14.63;6.80;;;;;;;;;;5015060;28;20025;-59
2024/03/18 01:06:32;;;;;;;16.87;6.70;;;;;;;;;;5017648;28;20103;-59
2024/03/18 01:08:58;;;;;;;12.73;6.18;;;;;;;;;;5021585;28;20026;-61
2024/03/18 01:11:24;;;;;;;11.73;5.82;;;;;;;;;;5026728;28;20025;-61
2024/03/18 01:13:49;;;;;;;13.20;5.40;;;;;;;;;;5028275;28;20040;-59
2024/03/18 01:16:15;;;;;;;11.90;5.50;;;;;;;;;;5026945;28;20029;-61
2024/03/18 01:18:41;;;;;;;17.50;6.20;;;;;;;;;;5025103;28;20049;-59
2024/03/18 01:21:06;;;;;;;11.40;5.30;;;;;;;;;;5027770;28;20081;-60
2024/03/18 01:23:31;;;;;;;13.40;5.70;;;;;;;;;;5020682;28;20033;-60
2024/03/18 01:25:57;;;;;;;10.53;4.87;;;;;;;;;;5023199;28;20021;-59
2024/03/18 01:28:22;;;;;;;12.93;5.00;;;;;;;;;;5014394;28;20507;-59
2024/03/18 01:30:48;;;;;;;10.70;4.85;;;;;;;;;;5015616;28;20045;-59
2024/03/18 01:33:13;;;;;;;13.35;5.25;;;;;;;;;;5030292;28;20025;-59
2024/03/18 01:35:38;;;;;;;12.93;5.25;;;;;;;;;;5034243;28;20044;-61
2024/03/18 01:38:03;;;;;;;11.97;5.00;;;;;;;;;;5035322;28;20026;-60
2024/03/18 01:40:29;;;;;;;13.80;4.68;;;;;;;;;;5033982;28;20010;-63
2024/03/18 01:42:54;;;;;;;9.63;4.43;;;;;;;;;;5033658;28;20018;-60
2024/03/18 01:45:23;;;;;;;11.30;4.87;;;;;;;;;;5035371;28;20002;-60
2024/03/18 01:47:49;;;;;;;10.30;4.80;;;;;;;;;;5034718;28;20022;-59
2024/03/18 01:50:14;;;;;;;11.97;4.90;;;;;;;;;;5049279;28;20033;-61
2024/03/18 01:52:39;;;;;;;14.10;4.97;;;;;;;;;;5040447;28;20445;-59
2024/03/18 01:55:04;;;;;;;12.57;5.30;;;;;;;;;;5027560;28;20017;-61
2024/03/18 01:57:30;;;;;;;13.33;4.87;;;;;;;;;;5022568;28;20026;-59
2024/03/18 01:59:56;;;;;;;9.82;4.75;;;;;;;;;;5011985;28;20017;-59
2024/03/18 02:02:21;;;;;;;12.57;4.68;;;;;;;;;;5011531;28;20018;-60
2024/03/18 02:04:46;;;;;;;12.73;4.78;;;;;;;;;;5012909;28;20054;-59
2024/03/18 02:07:22;;;;;;;15.88;5.30;;;;;;;;;;5012220;28;20037;-60
2024/03/18 02:09:47;;;;;;;12.07;5.32;;;;;;;;;;5012753;28;20029;-60
2024/03/18 02:12:16;;;;;;;12.35;5.30;;;;;;;;;;5011440;28;20673;-59
2024/03/18 02:14:44;;;;;;;13.55;5.45;;;;;;;;;;5010900;28;20497;-59
2024/03/18 02:17:09;;;;;;;9.38;4.15;;;;;;;;;;5012362;28;20418;-59
2024/03/18 02:19:34;;;;;;;10.07;4.45;;;;;;;;;;5011740;28;20018;-59
2024/03/18 02:22:05;;;;;;;10.13;4.25;;;;;;;;;;5010956;28;20038;-60
2024/03/18 02:24:30;;;;;;;12.38;4.97;;;;;;;;;;5011751;28;20072;-60
2024/03/18 02:26:55;;;;;;;9.75;4.63;;;;;;;;;;5012531;28;20033;-59
2024/03/18 02:29:20;;;;;;;10.10;4.10;;;;;;;;;;5011525;28;20478;-59
2024/03/18 02:31:46;;;;;;;11.38;4.75;;;;;;;;;;5006749;28;20061;-59
2024/03/18 02:34:11;;;;;;;11.20;4.30;;;;;;;;;;5011515;28;20034;-59
2024/03/18 02:36:36;;;;;;;13.15;4.50;;;;;;;;;;5010522;28;20068;-60
2024/03/18 02:39:01;;;;;;;11.05;4.35;;;;;;;;;;5011462;28;20041;-60
2024/03/18 02:41:26;;;;;;;12.93;4.23;;;;;;;;;;5026683;28;20466;-58
2024/03/18 02:43:52;;;;;;;9.00;4.28;;;;;;;;;;5009592;28;20030;-60
2024/03/18 02:46:17;;;;;;;9.98;3.90;;;;;;;;;;5010280;28;20409;-60
2024/03/18 02:48:43;;;;;;;10.85;4.60;;;;;;;;;;5010374;28;20057;-59
2024/03/18 02:51:08;;;;;;;9.53;4.00;;;;;;;;;;5011561;28;20037;-59
2024/03/18 02:53:33;;;;;;;11.88;4.72;;;;;;;;;;5009102;28;20489;-59
2024/03/18 02:55:58;;;;;;;11.50;4.55;;;;;;;;;;5009950;28;20478;-60
2024/03/18 02:58:24;;;;;;;11.30;4.50;;;;;;;;;;5003697;28;20037;-60
2024/03/18 03:00:51;;;;;;;10.30;4.30;;;;;;;;;;5011483;28;20021;-61
2024/03/18 03:03:17;;;;;;;;;;;;;;;;;;5011233;28;20052;-59
2024/03/18 03:05:42;;;;;;;10.30;4.30;;;;;;;;;;5013233;28;19941;-61
2024/03/18 03:08:07;;;;;;;10.77;5.05;;;;;;;;;;5014018;28;20084;-59
2024/03/18 03:10:33;;;;;;;12.50;5.07;;;;;;;;;;5010305;28;20371;-62
2024/03/18 03:12:58;;;;;;;11.50;4.47;;;;;;;;;;5011695;28;20394;-60
2024/03/18 03:15:25;;;;;;;14.07;4.82;;;;;;;;;;5017320;28;20025;-59
2024/03/18 03:17:51;;;;;;;10.55;4.40;;;;;;;;;;5015341;28;20025;-59
2024/03/18 03:20:20;;;;;;;10.65;3.88;;;;;;;;;;5015361;28;20084;-61
2024/03/18 03:22:46;;;;;;;10.18;3.42;;;;;;;;;;5016299;28;20030;-60
2024/03/18 03:25:11;;;;;;;9.03;3.93;;;;;;;;;;5029578;28;20072;-62
2024/03/18 03:27:36;;;;;;;8.23;3.15;;;;;;;;;;5030437;28;20029;-59
2024/03/18 03:30:02;;;;;;;8.45;3.60;;;;;;;;;;5029608;28;20060;-60
2024/03/18 03:32:27;;;;;;;9.15;3.80;;;;;;;;;;5031654;28;20037;-60
2024/03/18 03:34:52;;;;;;;10.20;3.50;;;;;;;;;;5030176;28;20026;-60
2024/03/18 03:37:18;;;;;;;8.52;3.13;;;;;;;;;;5028315;28;20014;-60
2024/03/18 03:39:43;;;;;;;11.05;3.50;;;;;;;;;;5024087;28;20612;-60
2024/03/18 03:42:09;;;;;;;9.38;3.40;;;;;;;;;;5019806;28;20061;-60
2024/03/18 03:44:34;;;;;;;11.80;3.50;;;;;;;;;;5029383;28;20040;-63
2024/03/18 03:46:59;;;;;;;8.68;3.30;;;;;;;;;;5032039;28;20034;-61
2024/03/18 03:49:28;;;;;;;9.38;3.45;;;;;;;;;;5026787;28;20105;-61
2024/03/18 03:51:55;;;;;;;10.52;3.60;;;;;;;;;;5016210;28;20026;-58
2024/03/18 03:54:20;;;;;;;10.40;3.75;;;;;;;;;;5015121;28;20021;-59
2024/03/18 03:56:46;;;;;;;9.37;3.77;;;;;;;;;;5015608;28;20026;-59
2024/03/18 03:59:11;;;;;;;10.70;3.80;;;;;;;;;;5014763;28;20482;-59
2024/03/18 04:01:36;;;;;;;10.95;3.67;;;;;;;;;;5013667;28;20029;-61
2024/03/18 04:04:01;;;;;;;9.87;3.43;;;;;;;;;;5014847;28;20108;-60
2024/03/18 04:06:27;;;;;;;8.53;3.13;;;;;;;;;;5014779;28;20105;-60
2024/03/18 04:08:52;;;;;;;9.93;3.13;;;;;;;;;;5014545;28;20034;-60
2024/03/18 04:11:17;;;;;;;9.00;3.30;;;;;;;;;;5020526;28;20033;-60
2024/03/18 04:13:43;;;;;;;8.65;3.30;;;;;;;;;;5018268;28;20030;-59
2024/03/18 04:16:08;;;;;;;10.17;4.87;;;;;;;;;;5019921;28;20034;-60
2024/03/18 04:18:35;;;;;;;11.17;3.73;;;;;;;;;;5020463;28;20105;-61
2024/03/18 04:21:00;;;;;;;;;;;;;;;;;;5019887;28;20036;-59
2024/03/18 04:23:32;;;;;;;9.90;3.20;;;;;;;;;;5012941;28;19988;-62
2024/03/18 04:25:59;;;;;;;11.23;3.92;;;;;;;;;;5012802;28;20386;-59
2024/03/18 04:28:24;;;;;;;10.32;3.00;;;;;;;;;;5014320;28;20096;-60
2024/03/18 04:30:49;;;;;;;7.67;2.70;;;;;;;;;;5014743;28;20648;-59
2024/03/18 04:33:16;;;;;;;8.03;3.30;;;;;;;;;;5013305;28;20113;-59
2024/03/18 04:35:41;;;;;;;8.48;3.50;;;;;;;;;;5013215;28;20117;-60
2024/03/18 04:38:06;;;;;;;8.70;3.30;;;;;;;;;;5022970;28;20108;-60
2024/03/18 04:40:32;;;;;;;12.60;3.80;;;;;;;;;;5020376;28;20129;-60
2024/03/18 04:42:57;;;;;;;11.63;3.20;;;;;;;;;;5013164;28;20092;-60
2024/03/18 04:45:23;;;;;;;9.87;3.23;;;;;;;;;;5014183;28;20029;-59
2024/03/18 04:47:51;;;;;;;9.67;3.53;;;;;;;;;;5013277;28;20041;-59
2024/03/18 04:50:19;;;;;;;7.68;2.85;;;;;;;;;;5013436;28;20105;-59
2024/03/18 04:52:44;;;;;;;9.93;2.67;;;;;;;;;;5013453;28;20025;-59
2024/03/18 04:55:11;;;;;;;7.33;3.40;;;;;;;;;;5013550;28;20010;-59
2024/03/18 04:57:36;;;;;;;9.02;3.20;;;;;;;;;;5012481;28;20022;-59
2024/03/18 05:00:05;;;;;;;9.88;3.28;;;;;;;;;;5011424;28;20045;-59
2024/03/18 05:02:31;;;;;;;9.60;3.38;;;;;;;;;;5026049;28;20038;-59
2024/03/18 05:04:57;;;;;;;8.93;3.43;;;;;;;;;;5013085;28;20391;-60
2024/03/18 05:07:22;;;;;;;9.55;3.40;;;;;;;;;;5012948;28;20394;-60
2024/03/18 05:09:52;;;;;;;8.50;3.57;;;;;;;;;;5012923;28;20026;-60
2024/03/18 05:12:17;;;;;;;9.38;3.30;;;;;;;;;;5008917;28;20032;-59
2024/03/18 05:14:42;;;;;;;10.03;3.63;;;;;;;;;;5012969;28;20018;-60
2024/03/18 05:17:07;;;;;;;8.70;3.30;;;;;;;;;;5012645;28;20018;-61
2024/03/18 05:19:33;;;;;;;9.13;3.60;;;;;;;;;;5012795;28;20440;-60
2024/03/18 05:21:58;;;;;;;9.17;3.20;;;;;;;;;;5010536;28;20045;-61
2024/03/18 05:24:23;;;;;;;9.40;3.13;;;;;;;;;;5011692;28;20018;-61
2024/03/18 05:26:48;;;;;;;10.37;3.33;;;;;;;;;;5012348;28;20594;-60
2024/03/18 05:29:13;;;;;;;10.33;3.60;;;;;;;;;;5012157;28;20036;-60
2024/03/18 05:31:39;;;;;;;9.03;3.43;;;;;;;;;;5004512;28;20097;-60
2024/03/18 05:34:05;;;;;;;10.77;3.38;;;;;;;;;;5006197;28;20401;-60
2024/03/18 05:36:31;;;;;;;8.45;3.28;;;;;;;;;;5001320;28;20021;-60
2024/03/18 05:38:56;;;;;;;12.63;3.70;;;;;;;;;;5006405;28;20021;-60
2024/03/18 05:41:21;;;;;;;11.48;3.50;;;;;;;;;;5009018;28;20394;-61
2024/03/18 05:43:47;;;;;;;8.93;3.60;;;;;;;;;;5008880;28;20041;-60
2024/03/18 05:46:12;;;;;;;9.18;3.10;;;;;;;;;;5006163;28;20018;-60
2024/03/18 05:48:37;;;;;;;15.37;3.30;;;;;;;;;;5005757;28;20065;-60
2024/03/18 05:51:02;;;;;;;9.13;3.00;;;;;;;;;;5006528;28;20097;-60
2024/03/18 05:53:28;;;;;;;10.33;3.30;;;;;;;;;;5009867;28;20030;-59
2024/03/18 05:55:53;;;;;;;10.43;3.23;;;;;;;;;;5008814;28;20107;-60
2024/03/18 05:58:18;;;;;;;8.65;3.15;;;;;;;;;;5009263;28;20549;-61
2024/03/18 06:00:43;;;;;;;10.33;3.40;;;;;;;;;;5008832;28;20063;-61
2024/03/18 06:03:08;;;;;;;10.77;3.40;;;;;;;;;;5008189;28;20463;-60
2024/03/18 06:05:33;;;;;;;12.38;3.05;;;;;;;;;;5010537;28;20037;-60
2024/03/18 06:07:59;;;;;;;12.87;3.50;;;;;;;;;;5012396;28;20044;-60
2024/03/18 06:10:24;;;;;;;9.93;3.40;;;;;;;;;;5014093;28;20055;-60
2024/03/18 06:12:49;;;;;;;14.30;3.53;;;;;;;;;;5018941;28;20021;-61
2024/03/18 06:15:14;;;;;;;9.27;3.40;;;;;;;;;;5013627;28;20389;-60
2024/03/18 06:17:40;;;;;;;11.82;3.10;;;;;;;;;;5011528;28;20030;-61
2024/03/18 06:20:06;;;;;;;11.40;2.97;;;;;;;;;;5020799;28;20049;-62
2024/03/18 06:22:37;;;;;;;8.48;3.25;;;;;;;;;;5009865;28;20040;-60
2024/03/18 06:27:52;;;;;;;;;;;;;;;;;;5013208;28;20060;-58
2024/03/18 06:30:18;;;;;;;8.68;2.75;;;;;;;;;;5012390;28;19910;-59
2024/03/18 06:32:43;;;;;;;10.98;3.35;;;;;;;;;;5011556;28;20048;-59
2024/03/18 06:35:08;;;;;;;12.10;3.45;;;;;;;;;;5010146;28;20030;-60
2024/03/18 06:37:36;;;;;;;10.48;4.10;;;;;;;;;;5010696;28;20422;-61
2024/03/18 06:40:04;;;;;;;12.18;3.92;;;;;;;;;;5011557;28;20064;-59
2024/03/18 06:42:29;;;;;;;9.95;4.15;;;;;;;;;;5006448;28;20030;-60
2024/03/18 06:44:54;;;;;;;11.40;3.53;;;;;;;;;;5009875;28;20030;-60
2024/03/18 06:47:20;;;;;;;12.27;3.42;;;;;;;;;;5009197;28;20113;-60
2024/03/18 06:49:45;;;;;;;12.77;3.22;;;;;;;;;;5006512;28;20022;-60
2024/03/18 06:52:11;;;;;;;11.07;3.70;;;;;;;;;;5006799;28;20050;-60
2024/03/18 06:54:36;;;;;;;9.10;3.60;;;;;;;;;;5011320;28;20470;-60
2024/03/18 06:57:01;;;;;;;10.52;3.83;;;;;;;;;;5009835;28;20030;-60
2024/03/18 06:59:26;;;;;;;12.73;3.90;;;;;;;;;;5009625;28;20470;-61
2024/03/18 07:01:52;;;;;;;9.18;3.90;;;;;;;;;;5010780;28;20030;-60
2024/03/18 07:04:17;;;;;;;11.40;3.70;;;;;;;;;;5022382;28;20030;-60
2024/03/18 07:06:42;;;;;;;10.82;3.85;;;;;;;;;;5022149;28;20065;-59
2024/03/18 07:09:07;;;;;;;12.30;3.92;;;;;;;;;;5011284;28;20029;-60
2024/03/18 07:11:32;;;;;;;12.50;3.97;;;;;;;;;;5010128;28;20025;-59
2024/03/18 07:13:57;;;;;;;10.15;3.95;;;;;;;;;;5010524;28;20440;-59
2024/03/18 07:16:23;;;;;;;9.68;3.97;;;;;;;;;;5010219;28;20105;-60
2024/03/18 07:18:48;;;;;;;11.27;3.92;;;;;;;;;;5009395;28;20030;-59
2024/03/18 07:21:13;;;;;;;11.50;3.80;;;;;;;;;;5009978;28;20021;-59
2024/03/18 07:23:39;;;;;;;11.05;4.18;;;;;;;;;;5010924;28;20033;-60
2024/03/18 07:26:04;;;;;;;10.43;3.97;;;;;;;;;;5010905;28;20486;-61
2024/03/18 07:28:33;;;;;;;9.27;3.80;;;;;;;;;;5010232;28;20022;-58
2024/03/18 07:30:58;;;;;;;13.57;4.07;;;;;;;;;;5009576;28;20037;-60
2024/03/18 07:33:23;;;;;;;10.70;3.88;;;;;;;;;;5009616;28;20022;-59
2024/03/18 07:35:52;;;;;;;11.20;3.87;;;;;;;;;;5011681;28;20033;-59
2024/03/18 07:38:18;;;;;;;11.88;4.32;;;;;;;;;;5013273;28;20026;-61
2024/03/18 07:40:43;;;;;;;10.20;3.40;;;;;;;;;;5012289;28;20041;-60
2024/03/18 07:43:11;;;;;;;11.02;4.05;;;;;;;;;;5011207;28;20098;-59
2024/03/18 07:45:36;;;;;;;10.60;3.95;;;;;;;;;;5009265;28;20437;-61
2024/03/18 07:48:04;;;;;;;10.75;3.67;;;;;;;;;;5010119;28;20058;-60
2024/03/18 07:50:29;;;;;;;10.57;3.88;;;;;;;;;;5026956;28;20466;-59
2024/03/18 07:52:56;;;;;;;10.93;4.30;;;;;;;;;;5012456;28;20038;-59
2024/03/18 07:55:21;;;;;;;11.52;3.63;;;;;;;;;;5012768;28;20488;-59
2024/03/18 07:57:46;;;;;;;9.38;3.78;;;;;;;;;;5010425;28;20053;-67
2024/03/18 08:00:11;;;;;;;11.40;4.00;;;;;;;;;;5010341;28;20030;-60
2024/03/18 08:02:36;;;;;;;11.07;3.90;;;;;;;;;;5013124;28;20044;-62
2024/03/18 08:05:02;;;;;;;9.52;4.10;;;;;;;;;;5015602;28;20050;-59
2024/03/18 08:07:27;;;;;;;11.37;4.10;;;;;;;;;;5025563;28;20036;-59
2024/03/18 08:09:52;;;;;;;11.20;4.65;;;;;;;;;;5020220;28;20025;-61
2024/03/18 08:12:17;;;;;;;11.55;4.40;;;;;;;;;;5014580;28;20022;-60
2024/03/18 08:14:44;;;;;;;11.87;4.23;;;;;;;;;;5014163;28;20029;-59
2024/03/18 08:17:09;;;;;;;12.68;4.57;;;;;;;;;;5013803;28;20026;-61
2024/03/18 08:19:34;;;;;;;10.80;4.05;;;;;;;;;;5011257;28;20025;-61
2024/03/18 08:22:00;;;;;;;11.68;4.25;;;;;;;;;;5012043;28;20022;-60
2024/03/18 08:24:25;;;;;;;11.25;4.40;;;;;;;;;;5019524;28;20371;-60
2024/03/18 08:26:54;;;;;;;8.68;3.53;;;;;;;;;;5017780;28;20402;-59
2024/03/18 08:29:19;;;;;;;9.82;3.47;;;;;;;;;;5016308;28;20056;-61
2024/03/18 08:31:44;;;;;;;10.77;3.33;;;;;;;;;;5020506;28;20470;-59
2024/03/18 08:34:09;;;;;;;7.97;3.00;;;;;;;;;;5019221;28;20108;-60
2024/03/18 08:36:35;;;;;;;7.43;2.88;;;;;;;;;;5014988;28;20026;-59
2024/03/18 08:39:00;;;;;;;6.40;2.30;;;;;;;;;;5013768;28;20105;-60
2024/03/18 08:41:25;;;;;;;5.65;2.08;;;;;;;;;;5013627;28;20140;-60
2024/03/18 08:43:50;;;;;;;6.20;1.92;;;;;;;;;;5013430;28;20065;-59
2024/03/18 08:46:15;;;;;;;5.53;2.10;;;;;;;;;;5013530;28;20036;-60
2024/03/18 08:48:41;;;;;;;5.60;1.58;;;;;;;;;;5013829;28;20492;-60
2024/03/18 08:51:07;;;;;;;5.95;1.42;;;;;;;;;;5013950;28;20043;-59
2024/03/18 08:53:32;;;;;;;5.40;1.50;;;;;;;;;;5012890;28;20029;-60
2024/03/18 08:55:57;;;;;;;5.90;1.53;;;;;;;;;;5012973;28;20068;-60
2024/03/18 08:58:22;;;;;;;5.73;1.97;;;;;;;;;;5013196;28;20053;-59
2024/03/18 09:00:48;;;;;;;8.23;2.10;;;;;;;;;;5017143;28;20037;-63
2024/03/18 09:03:13;;;;;;;5.95;1.75;;;;;;;;;;5031398;28;20109;-60
2024/03/18 09:05:38;;;;;;;7.07;2.13;;;;;;;;;;5015367;28;20036;-60
2024/03/18 09:08:05;;;;;;;5.70;2.22;;;;;;;;;;5016483;28;20022;-61
2024/03/18 09:10:31;;;;;;;5.03;1.73;;;;;;;;;;5013613;28;20050;-60
2024/03/18 09:13:00;;;;;;;6.57;2.10;;;;;;;;;;5013767;28;20041;-60
2024/03/18 09:15:26;;;;;;;5.70;1.90;;;;;;;;;;5013484;28;20056;-60
2024/03/18 09:17:51;;;;;;;5.70;2.00;;;;;;;;;;5013546;28;20049;-60
2024/03/18 09:20:20;;;;;;;6.27;2.20;;;;;;;;;;5011385;28;20037;-61
2024/03/18 09:22:45;;;;;;;5.82;2.03;;;;;;;;;;5011463;28;20107;-60
2024/03/18 09:25:11;;;;;;;8.15;2.80;;;;;;;;;;5012868;28;20046;-61
2024/03/18 09:27:36;;;;;;;10.98;3.28;;;;;;;;;;5013076;28;20427;-62
2024/03/18 09:30:02;;;;;;;8.73;3.20;;;;;;;;;;5012166;28;20108;-60
2024/03/18 09:32:27;;;;;;;8.77;3.33;;;;;;;;;;5012641;28;20112;-59
2024/03/18 09:34:52;;;;;;;8.10;3.10;;;;;;;;;;5012987;28;20394;-59
2024/03/18 09:37:18;;;;;;;9.05;3.08;;;;;;;;;;5009055;28;20029;-61
2024/03/18 09:39:43;;;;;;;11.02;3.30;;;;;;;;;;5011397;28;20038;-61
2024/03/18 09:42:10;;;;;;;9.63;3.50;;;;;;;;;;5024848;28;20165;-60
2024/03/18 09:44:36;;;;;;;7.55;2.92;;;;;;;;;;5012561;28;20014;-60
2024/03/18 09:47:01;;;;;;;9.23;3.22;;;;;;;;;;5028873;28;20025;-61
2024/03/18 09:49:26;;;;;;;9.68;3.60;;;;;;;;;;5012658;28;20013;-60
2024/03/18 09:51:53;;;;;;;8.02;3.13;;;;;;;;;;5010074;28;20044;-60
2024/03/18 09:54:19;;;;;;;9.15;3.25;;;;;;;;;;5012026;28;20033;-60
2024/03/18 09:56:46;;;;;;;7.50;2.80;;;;;;;;;;5013461;28;20010;-60
2024/03/18 09:59:13;;;;;;;7.60;3.13;;;;;;;;;;5013178;28;20025;-60
2024/03/18 10:01:38;;;;;;;7.75;3.20;;;;;;;;;;5012205;28;20033;-60
2024/03/18 10:04:04;;;;;;;8.40;3.60;;;;;;;;;;5013052;28;20432;-60
2024/03/18 10:06:32;;;;;;;8.50;3.10;;;;;;;;;;5014344;28;20363;-61
2024/03/18 10:08:58;;;;;;;8.73;3.00;;;;;;;;;;5022469;28;20021;-61
2024/03/18 10:11:23;;;;;;;7.18;2.92;;;;;;;;;;5020736;28;20010;-59
2024/03/18 10:13:48;;;;;;;8.15;3.30;;;;;;;;;;5015245;28;20529;-60
2024/03/18 10:16:14;;;;;;;7.90;2.90;;;;;;;;;;5013881;28;20037;-61
2024/03/18 10:18:39;;;;;;;8.13;3.40;;;;;;;;;;5013680;28;20429;-60
2024/03/18 10:21:04;;;;;;;8.57;3.40;;;;;;;;;;5020447;28;20040;-61
2024/03/18 10:23:30;;;;;;;7.85;3.20;;;;;;;;;;5025675;28;20174;-60
2024/03/18 10:25:55;;;;;;;8.10;3.00;;;;;;;;;;5024521;28;20030;-61
2024/03/18 10:28:20;;;;;;;8.45;3.28;;;;;;;;;;5026386;28;20057;-61
2024/03/18 10:30:46;;;;;;;8.00;2.80;;;;;;;;;;5029558;28;20025;-61
2024/03/18 10:33:15;;;;;;;9.30;3.15;;;;;;;;;;5031806;28;20021;-60
2024/03/18 10:35:43;;;;;;;7.32;2.65;;;;;;;;;;5036614;28;20021;-60
2024/03/18 10:38:09;;;;;;;6.45;2.65;;;;;;;;;;5021299;28;20037;-60
2024/03/18 10:40:38;;;;;;;7.25;2.90;;;;;;;;;;5043453;28;20037;-60
2024/03/18 10:43:06;;;;;;;7.15;2.70;;;;;;;;;;5017986;28;20160;-61
2024/03/18 10:45:32;;;;;;;7.30;2.60;;;;;;;;;;5015674;28;20018;-60
2024/03/18 10:48:00;;;;;;;6.95;2.75;;;;;;;;;;5024362;28;20029;-61
2024/03/18 10:50:27;;;;;;;6.60;2.35;;;;;;;;;;5019218;28;20034;-60
2024/03/18 10:52:53;;;;;;;6.63;2.50;;;;;;;;;;5023371;28;20022;-60
2024/03/18 10:55:20;;;;;;;6.25;2.38;;;;;;;;;;5014149;28;20062;-61
2024/03/18 10:57:52;;;;;;;7.15;2.30;;;;;;;;;;5012733;28;20076;-60
2024/03/18 11:00:21;;;;;;;6.28;2.13;;;;;;;;;;5011430;28;20018;-60
2024/03/18 11:02:55;;;;;;;6.10;2.22;;;;;;;;;;5011217;28;20498;-59
2024/03/18 11:05:21;;;;;;;5.75;1.90;;;;;;;;;;5010479;28;20025;-62
2024/03/18 11:07:46;;;;;;;7.30;2.42;;;;;;;;;;5010741;28;20101;-61
2024/03/18 11:10:12;;;;;;;5.55;2.20;;;;;;;;;;5011268;28;20106;-61
2024/03/18 11:12:37;;;;;;;6.63;2.50;;;;;;;;;;5010116;28;20068;-62
2024/03/18 11:15:05;;;;;;;7.27;2.70;;;;;;;;;;5011208;28;20475;-60
2024/03/18 11:17:31;;;;;;;7.55;2.85;;;;;;;;;;5011821;28;20037;-60
2024/03/18 11:19:59;;;;;;;6.77;2.53;;;;;;;;;;5011542;28;20033;-59
2024/03/18 11:22:24;;;;;;;6.60;2.53;;;;;;;;;;5007834;28;20433;-59
2024/03/18 11:24:53;;;;;;;6.13;2.30;;;;;;;;;;5011016;28;20014;-60
2024/03/18 11:27:19;;;;;;;8.02;2.55;;;;;;;;;;5026006;28;20022;-60
2024/03/18 11:29:49;;;;;;;7.43;2.60;;;;;;;;;;5011120;28;20397;-60
2024/03/18 11:32:14;;;;;;;6.20;2.45;;;;;;;;;;5011161;28;20021;-60
2024/03/18 11:34:41;;;;;;;7.43;2.70;;;;;;;;;;5012371;28;20079;-59
2024/03/18 11:37:07;;;;;;;7.93;2.78;;;;;;;;;;5014405;28;20033;-60
2024/03/18 11:39:32;;;;;;;6.95;2.80;;;;;;;;;;5011910;28;20030;-60
2024/03/18 11:42:03;;;;;;;7.57;2.77;;;;;;;;;;5013402;28;20038;-60
2024/03/18 11:44:28;;;;;;;6.82;2.63;;;;;;;;;;5014092;28;20486;-59
2024/03/18 11:47:05;;;;;;;8.00;2.72;;;;;;;;;;5015224;28;20089;-59
2024/03/18 11:49:31;;;;;;;7.28;2.80;;;;;;;;;;5014610;28;20102;-60
2024/03/18 11:51:56;;;;;;;11.45;2.55;;;;;;;;;;5011187;28;20630;-62
2024/03/18 11:54:22;;;;;;;5.40;2.35;;;;;;;;;;5013841;28;20528;-60
2024/03/18 11:56:47;;;;;;;6.10;2.50;;;;;;;;;;5013713;28;20045;-61
2024/03/18 11:59:12;;;;;;;5.97;2.53;;;;;;;;;;5014425;28;20084;-60
2024/03/18 12:01:38;;;;;;;6.05;2.50;;;;;;;;;;5013989;28;20026;-59
2024/03/18 12:04:04;;;;;;;8.10;3.08;;;;;;;;;;5014075;28;20517;-60
2024/03/18 12:06:35;;;;;;;5.57;2.50;;;;;;;;;;5029915;28;20030;-60
2024/03/18 12:09:00;;;;;;;5.72;2.47;;;;;;;;;;5016800;28;20021;-60
2024/03/18 12:11:26;;;;;;;7.07;2.70;;;;;;;;;;5016642;28;20022;-61
2024/03/18 12:13:51;;;;;;;8.10;2.83;;;;;;;;;;5016596;28;20022;-59
2024/03/18 12:16:16;;;;;;;6.35;2.30;;;;;;;;;;5018234;28;20029;-60
2024/03/18 12:18:41;;;;;;;6.53;2.70;;;;;;;;;;5018539;28;20467;-60
2024/03/18 12:21:06;;;;;;;6.43;2.63;;;;;;;;;;5017585;28;20061;-61
2024/03/18 12:29:00;;;;;;;11.73;4.03;;;;;;;;;;5015294;28;19919;-60
2024/03/18 12:31:27;;;;;;;5.95;2.55;;;;;;;;;;5017038;28;20029;-60
2024/03/18 12:33:53;;;;;;;5.80;2.20;;;;;;;;;;5015493;28;20033;-60
2024/03/18 12:36:19;;;;;;;7.22;2.15;;;;;;;;;;5014481;28;20036;-60
2024/03/18 12:38:47;;;;;;;6.47;2.50;;;;;;;;;;5014097;28;20108;-60
2024/03/18 12:41:18;;;;;;;5.65;2.30;;;;;;;;;;5010246;28;20056;-60
2024/03/18 12:43:47;;;;;;;5.22;2.03;;;;;;;;;;5012624;28;20018;-60
2024/03/18 12:46:13;;;;;;;6.00;2.28;;;;;;;;;;5012709;28;20481;-60
2024/03/18 12:48:38;;;;;;;6.18;2.20;;;;;;;;;;5013349;28;20809;-61
2024/03/18 12:51:04;;;;;;;5.67;2.33;;;;;;;;;;5013241;28;20101;-60
2024/03/18 12:53:29;;;;;;;6.93;2.22;;;;;;;;;;5013401;28;20030;-59
2024/03/18 12:55:55;;;;;;;7.00;2.50;;;;;;;;;;5012568;28;20029;-59
2024/03/18 12:58:20;;;;;;;5.55;2.20;;;;;;;;;;5013248;28;20029;-60
2024/03/18 13:00:45;;;;;;;5.50;2.20;;;;;;;;;;5014097;28;20378;-59
2024/03/18 13:03:13;;;;;;;7.10;2.10;;;;;;;;;;5017665;28;20018;-59
2024/03/18 13:05:38;;;;;;;5.18;2.13;;;;;;;;;;5013440;28;20453;-60
2024/03/18 13:08:04;;;;;;;6.03;2.20;;;;;;;;;;5013924;28;20026;-60
2024/03/18 13:10:29;;;;;;;6.53;2.20;;;;;;;;;;5013277;28;20095;-59
2024/03/18 13:12:55;;;;;;;5.30;1.85;;;;;;;;;;5020905;28;20109;-60
2024/03/18 13:15:22;;;;;;;5.75;2.25;;;;;;;;;;5018965;28;20018;-61
2024/03/18 13:17:47;;;;;;;5.90;2.17;;;;;;;;;;5014849;28;20089;-60
2024/03/18 13:20:16;;;;;;;5.57;2.30;;;;;;;;;;5016641;28;20538;-59
2024/03/18 13:22:42;;;;;;;6.32;2.38;;;;;;;;;;5018474;28;22285;-59
2024/03/18 13:25:09;;;;;;;5.10;2.20;;;;;;;;;;5014413;28;20509;-61
2024/03/18 13:27:34;;;;;;;5.60;2.30;;;;;;;;;;5012819;28;20798;-60
2024/03/18 13:29:59;;;;;;;5.20;2.03;;;;;;;;;;5012165;28;20025;-62
2024/03/18 13:32:25;;;;;;;6.18;2.60;;;;;;;;;;5012816;28;20072;-60
2024/03/18 13:34:52;;;;;;;4.82;2.30;;;;;;;;;;5010234;28;20021;-60
2024/03/18 13:37:17;;;;;;;5.70;2.33;;;;;;;;;;5014572;28;20069;-61
2024/03/18 13:39:45;;;;;;;5.90;2.60;;;;;;;;;;5012955;28;20064;-59
2024/03/18 13:42:16;;;;;;;7.30;2.22;;;;;;;;;;5013307;28;20032;-61
2024/03/18 13:44:42;;;;;;;5.35;2.20;;;;;;;;;;5029333;28;20018;-62
2024/03/18 13:47:08;;;;;;;6.60;2.65;;;;;;;;;;5030050;28;20033;-61
2024/03/18 13:49:33;;;;;;;5.93;2.25;;;;;;;;;;5028096;28;20029;-60
2024/03/18 13:51:58;;;;;;;6.22;2.47;;;;;;;;;;5027033;28;20565;-61
2024/03/18 13:54:24;;;;;;;5.90;2.57;;;;;;;;;;5026205;28;20029;-60
2024/03/18 13:56:49;;;;;;;5.60;2.20;;;;;;;;;;5026539;28;20028;-61
2024/03/18 13:59:15;;;;;;;4.93;2.45;;;;;;;;;;5027266;28;20097;-60
2024/03/18 14:01:40;;;;;;;5.40;1.98;;;;;;;;;;5016654;28;20041;-60
2024/03/18 14:04:06;;;;;;;8.55;2.53;;;;;;;;;;5017232;28;20057;-60
2024/03/18 14:06:31;;;;;;;6.47;2.35;;;;;;;;;;5018026;28;20018;-60
2024/03/18 14:08:56;;;;;;;5.53;1.90;;;;;;;;;;5018399;28;20022;-60
2024/03/18 14:11:21;;;;;;;6.90;2.17;;;;;;;;;;5013290;28;20559;-61
2024/03/18 14:13:46;;;;;;;5.23;2.20;;;;;;;;;;5019946;28;20460;-60
2024/03/18 14:16:14;;;;;;;4.47;1.92;;;;;;;;;;5021054;28;20029;-61
2024/03/18 14:18:41;;;;;;;5.15;2.08;;;;;;;;;;5013735;28;20024;-61
2024/03/18 14:21:08;;;;;;;5.78;2.00;;;;;;;;;;5017564;28;20469;-60
2024/03/18 14:23:34;;;;;;;5.30;1.90;;;;;;;;;;5018360;28;20045;-61
2024/03/18 14:26:00;;;;;;;5.68;2.10;;;;;;;;;;5013357;28;20026;-60
2024/03/18 14:28:25;;;;;;;4.97;2.00;;;;;;;;;;5016865;28;20044;-60
2024/03/18 14:30:51;;;;;;;4.53;1.63;;;;;;;;;;5014113;28;20053;-60
2024/03/18 14:33:16;;;;;;;5.55;1.75;;;;;;;;;;5015550;28;20033;-59
2024/03/18 14:35:41;;;;;;;4.67;1.70;;;;;;;;;;5016355;28;20018;-60
2024/03/18 14:38:06;;;;;;;4.53;1.48;;;;;;;;;;5013465;28;20029;-59